NGN47 EDDK-LDPL
Flight info
| Callsign | NGN47 |
|---|---|
| Flight time | 1h 15m |
| Altitude | 36000 |
| Route | KUMIK1B KUMIK L603 TESGA DCT ESATI DCT DETEV DCT DINKU M867 XERUM DCT BAVAX DCT RADIZ DCT URAVA DCT GIRDA |
| Aircraft | A320/M-SDE3FGHIRWY/LB1 |
Departure
| Time | 2026-04-24 22:00 |
|---|---|
| Airport | Cologne Bonn Airport (EDDK) |
Arrival
| Time | 2026-04-24 23:15 |
|---|---|
| Airport | Pula Airport (LDPL) |
| Time | Latitude | Longitude | Altitude | Speed | Heading |
|---|---|---|---|---|---|
| 2026-04-24 21:33 | 50.88345 | 7.12011 | 232 ft | 0 kts | 36° |
| 2026-04-24 21:47 | 50.88343 | 7.12009 | 232 ft | 3 kts | 36° |
| 2026-04-24 21:47 | 50.88321 | 7.11986 | 233 ft | 4 kts | 33° |
| 2026-04-24 21:48 | 50.88302 | 7.11965 | 235 ft | 4 kts | 52° |
| 2026-04-24 21:48 | 50.88299 | 7.11935 | 237 ft | 4 kts | 121° |
| 2026-04-24 21:48 | 50.88314 | 7.11903 | 233 ft | 2 kts | 126° |
| 2026-04-24 21:48 | 50.88314 | 7.11902 | 233 ft | 0 kts | 126° |
| 2026-04-24 21:51 | 50.88311 | 7.11909 | 234 ft | 2 kts | 126° |
| 2026-04-24 21:52 | 50.88285 | 7.11965 | 234 ft | 8 kts | 126° |
| 2026-04-24 21:52 | 50.88247 | 7.12049 | 232 ft | 11 kts | 126° |
| 2026-04-24 21:52 | 50.88197 | 7.12155 | 234 ft | 13 kts | 126° |
| 2026-04-24 21:52 | 50.88153 | 7.12292 | 232 ft | 16 kts | 92° |
| 2026-04-24 21:53 | 50.88114 | 7.12458 | 232 ft | 18 kts | 134° |
| 2026-04-24 21:53 | 50.88022 | 7.12594 | 232 ft | 16 kts | 136° |
| 2026-04-24 21:53 | 50.87920 | 7.12632 | 232 ft | 18 kts | 203° |
| 2026-04-24 21:53 | 50.87799 | 7.12656 | 233 ft | 20 kts | 139° |
| 2026-04-24 21:54 | 50.87690 | 7.12812 | 232 ft | 22 kts | 138° |
| 2026-04-24 21:54 | 50.87571 | 7.12985 | 232 ft | 24 kts | 136° |
| 2026-04-24 21:54 | 50.87441 | 7.13175 | 232 ft | 26 kts | 137° |
| 2026-04-24 21:54 | 50.87299 | 7.13378 | 232 ft | 28 kts | 137° |
| 2026-04-24 21:55 | 50.87153 | 7.13589 | 238 ft | 28 kts | 137° |
| 2026-04-24 21:55 | 50.87010 | 7.13798 | 243 ft | 28 kts | 137° |
| 2026-04-24 21:55 | 50.86876 | 7.13995 | 254 ft | 18 kts | 137° |
| 2026-04-24 21:55 | 50.86794 | 7.14113 | 255 ft | 10 kts | 141° |
| 2026-04-24 21:56 | 50.86714 | 7.14167 | 257 ft | 14 kts | 141° |
| 2026-04-24 21:56 | 50.86629 | 7.14289 | 261 ft | 18 kts | 137° |
| 2026-04-24 21:56 | 50.86532 | 7.14429 | 264 ft | 19 kts | 138° |
| 2026-04-24 21:56 | 50.86436 | 7.14566 | 270 ft | 18 kts | 138° |
| 2026-04-24 21:57 | 50.86346 | 7.14698 | 275 ft | 17 kts | 137° |
| 2026-04-24 21:57 | 50.86260 | 7.14824 | 280 ft | 17 kts | 137° |
| 2026-04-24 21:57 | 50.86176 | 7.14945 | 285 ft | 16 kts | 137° |
| 2026-04-24 21:57 | 50.86093 | 7.15065 | 288 ft | 12 kts | 137° |
| 2026-04-24 21:58 | 50.86045 | 7.15176 | 293 ft | 13 kts | 103° |
| 2026-04-24 21:58 | 50.86076 | 7.15323 | 293 ft | 17 kts | 46° |
| 2026-04-24 21:58 | 50.86201 | 7.15343 | 291 ft | 21 kts | 348° |
| 2026-04-24 21:58 | 50.86348 | 7.15300 | 287 ft | 18 kts | 5° |
| 2026-04-24 21:59 | 50.86420 | 7.15265 | 283 ft | 6 kts | 317° |
| 2026-04-24 21:59 | 50.86435 | 7.15243 | 283 ft | 9 kts | 317° |
| 2026-04-24 21:59 | 50.86681 | 7.14889 | 271 ft | 84 kts | 317° |
| 2026-04-24 21:59 | 50.87273 | 7.14033 | 244 ft | 141 kts | 317° |
| 2026-04-24 22:00 | 50.88047 | 7.12936 | 570 ft | 156 kts | 319° |
| 2026-04-24 22:00 | 50.88908 | 7.11854 | 1144 ft | 159 kts | 334° |
| 2026-04-24 22:00 | 50.89982 | 7.11655 | 1770 ft | 159 kts | 14° |
| 2026-04-24 22:00 | 50.91071 | 7.12264 | 2132 ft | 177 kts | 20° |
| 2026-04-24 22:01 | 50.92309 | 7.13030 | 2362 ft | 205 kts | 20° |
| 2026-04-24 22:01 | 50.93549 | 7.14278 | 2897 ft | 217 kts | 46° |
| 2026-04-24 22:01 | 50.94392 | 7.16379 | 3449 ft | 237 kts | 62° |
| 2026-04-24 22:01 | 50.95156 | 7.18826 | 3964 ft | 257 kts | 62° |
| 2026-04-24 22:02 | 50.95975 | 7.21437 | 4676 ft | 268 kts | 62° |
| 2026-04-24 22:02 | 50.96803 | 7.24095 | 5601 ft | 270 kts | 62° |
| 2026-04-24 22:02 | 50.97628 | 7.26772 | 6540 ft | 271 kts | 62° |
| 2026-04-24 22:02 | 50.98447 | 7.29470 | 7434 ft | 271 kts | 63° |
| 2026-04-24 22:03 | 50.99247 | 7.32178 | 8317 ft | 273 kts | 66° |
| 2026-04-24 22:03 | 50.99596 | 7.35182 | 9002 ft | 284 kts | 94° |
| 2026-04-24 22:03 | 50.99005 | 7.38177 | 9820 ft | 288 kts | 115° |
| 2026-04-24 22:03 | 50.98105 | 7.41049 | 10552 ft | 293 kts | 113° |
| 2026-04-24 22:04 | 50.97293 | 7.44121 | 10872 ft | 313 kts | 111° |
| 2026-04-24 22:04 | 50.96482 | 7.47467 | 11046 ft | 336 kts | 109° |
| 2026-04-24 22:04 | 50.95668 | 7.51086 | 11178 ft | 359 kts | 108° |
| 2026-04-24 22:04 | 50.94853 | 7.54902 | 11598 ft | 370 kts | 108° |
| 2026-04-24 22:05 | 50.94039 | 7.58804 | 12199 ft | 375 kts | 108° |
| 2026-04-24 22:05 | 50.93216 | 7.62755 | 12822 ft | 380 kts | 108° |
| 2026-04-24 22:05 | 50.92107 | 7.66559 | 13439 ft | 384 kts | 124° |
| 2026-04-24 22:05 | 50.90364 | 7.69788 | 14062 ft | 387 kts | 134° |
| 2026-04-24 22:06 | 50.88480 | 7.72866 | 14616 ft | 391 kts | 135° |
| 2026-04-24 22:06 | 50.86566 | 7.75962 | 15157 ft | 395 kts | 135° |
| 2026-04-24 22:06 | 50.84690 | 7.79166 | 15692 ft | 399 kts | 133° |
| 2026-04-24 22:06 | 50.82852 | 7.82495 | 16229 ft | 403 kts | 131° |
| 2026-04-24 22:07 | 50.81029 | 7.85901 | 16774 ft | 408 kts | 131° |
| 2026-04-24 22:07 | 50.79817 | 7.88182 | 17136 ft | 410 kts | 131° |
| 2026-04-24 22:07 | 50.77971 | 7.91646 | 17696 ft | 415 kts | 131° |
| 2026-04-24 22:07 | 50.76095 | 7.95134 | 18254 ft | 419 kts | 132° |
| 2026-04-24 22:08 | 50.74183 | 7.98646 | 18772 ft | 424 kts | 132° |
| 2026-04-24 22:08 | 50.72244 | 8.02178 | 19262 ft | 428 kts | 133° |
| 2026-04-24 22:08 | 50.70276 | 8.05745 | 19776 ft | 432 kts | 133° |
| 2026-04-24 22:08 | 50.68296 | 8.09325 | 20284 ft | 435 kts | 133° |
| 2026-04-24 22:09 | 50.66302 | 8.12934 | 20770 ft | 438 kts | 133° |
| 2026-04-24 22:09 | 50.64289 | 8.16572 | 21233 ft | 442 kts | 133° |
| 2026-04-24 22:09 | 50.62260 | 8.20232 | 21678 ft | 445 kts | 134° |
| 2026-04-24 22:09 | 50.60218 | 8.23908 | 22099 ft | 448 kts | 134° |
| 2026-04-24 22:10 | 50.58161 | 8.27611 | 22508 ft | 451 kts | 134° |
| 2026-04-24 22:10 | 50.56097 | 8.31328 | 22951 ft | 453 kts | 134° |
| 2026-04-24 22:10 | 50.54021 | 8.35069 | 23365 ft | 455 kts | 134° |
| 2026-04-24 22:10 | 50.51929 | 8.38833 | 23749 ft | 458 kts | 134° |
| 2026-04-24 22:11 | 50.49825 | 8.42610 | 24042 ft | 462 kts | 134° |
| 2026-04-24 22:11 | 50.47699 | 8.46412 | 24370 ft | 464 kts | 134° |
| 2026-04-24 22:11 | 50.45558 | 8.50227 | 24700 ft | 466 kts | 134° |
| 2026-04-24 22:11 | 50.43402 | 8.54061 | 25016 ft | 469 kts | 134° |
| 2026-04-24 22:12 | 50.41245 | 8.57896 | 25343 ft | 471 kts | 134° |
| 2026-04-24 22:12 | 50.39075 | 8.61748 | 25656 ft | 473 kts | 134° |
| 2026-04-24 22:12 | 50.36887 | 8.65618 | 25983 ft | 475 kts | 134° |
| 2026-04-24 22:12 | 50.34693 | 8.69492 | 26299 ft | 477 kts | 135° |
| 2026-04-24 22:13 | 50.32480 | 8.73395 | 26608 ft | 479 kts | 135° |
| 2026-04-24 22:13 | 50.30261 | 8.77299 | 26918 ft | 480 kts | 135° |
| 2026-04-24 22:13 | 50.28063 | 8.81152 | 27295 ft | 480 kts | 135° |
| 2026-04-24 22:13 | 50.25814 | 8.85087 | 27766 ft | 479 kts | 135° |
| 2026-04-24 22:14 | 50.23600 | 8.88879 | 28220 ft | 477 kts | 137° |
| 2026-04-24 22:14 | 50.21280 | 8.92555 | 28676 ft | 475 kts | 139° |
| 2026-04-24 22:14 | 50.18885 | 8.96099 | 29133 ft | 473 kts | 141° |
| 2026-04-24 22:14 | 50.16458 | 8.99561 | 29595 ft | 472 kts | 142° |
| 2026-04-24 22:15 | 50.14025 | 9.02999 | 30067 ft | 471 kts | 142° |
| 2026-04-24 22:15 | 50.11610 | 9.06438 | 30501 ft | 470 kts | 141° |
| 2026-04-24 22:15 | 50.09215 | 9.09899 | 30911 ft | 469 kts | 141° |
| 2026-04-24 22:15 | 50.06840 | 9.13380 | 31324 ft | 468 kts | 140° |
| 2026-04-24 22:16 | 50.04482 | 9.16871 | 31735 ft | 467 kts | 140° |
| 2026-04-24 22:16 | 50.02139 | 9.20355 | 32155 ft | 466 kts | 140° |
| 2026-04-24 22:16 | 49.99800 | 9.23837 | 32572 ft | 465 kts | 140° |
| 2026-04-24 22:16 | 49.97466 | 9.27303 | 32998 ft | 464 kts | 140° |
| 2026-04-24 22:17 | 49.95134 | 9.30757 | 33427 ft | 462 kts | 140° |
| 2026-04-24 22:17 | 49.92805 | 9.34189 | 33845 ft | 461 kts | 140° |
| 2026-04-24 22:17 | 49.90480 | 9.37607 | 34252 ft | 460 kts | 140° |
| 2026-04-24 22:17 | 49.88158 | 9.41012 | 34600 ft | 459 kts | 140° |
| 2026-04-24 22:18 | 49.85835 | 9.44411 | 34926 ft | 459 kts | 140° |
| 2026-04-24 22:18 | 49.83516 | 9.47800 | 35243 ft | 458 kts | 140° |
| 2026-04-24 22:18 | 49.81199 | 9.51185 | 35557 ft | 458 kts | 141° |
| 2026-04-24 22:18 | 49.78883 | 9.54559 | 35854 ft | 457 kts | 140° |
| 2026-04-24 22:19 | 49.76565 | 9.57931 | 36104 ft | 457 kts | 141° |
| 2026-04-24 22:19 | 49.71887 | 9.64720 | 36167 ft | 466 kts | 140° |
| 2026-04-24 22:20 | 49.67144 | 9.71609 | 36165 ft | 469 kts | 140° |
| 2026-04-24 22:20 | 49.62383 | 9.78515 | 36165 ft | 469 kts | 140° |
| 2026-04-24 22:21 | 49.57616 | 9.85393 | 36166 ft | 469 kts | 141° |
| 2026-04-24 22:21 | 49.52846 | 9.92254 | 36155 ft | 469 kts | 140° |
| 2026-04-24 22:22 | 49.48070 | 9.99085 | 36165 ft | 469 kts | 140° |
| 2026-04-24 22:22 | 49.43292 | 10.05902 | 36170 ft | 469 kts | 140° |
| 2026-04-24 22:23 | 49.38515 | 10.12724 | 36172 ft | 469 kts | 140° |
| 2026-04-24 22:23 | 49.33733 | 10.19535 | 36178 ft | 469 kts | 141° |
| 2026-04-24 22:24 | 49.28944 | 10.26323 | 36173 ft | 469 kts | 141° |
| 2026-04-24 22:24 | 49.24150 | 10.33096 | 36173 ft | 469 kts | 140° |
| 2026-04-24 22:25 | 49.19356 | 10.39860 | 36203 ft | 469 kts | 140° |
| 2026-04-24 22:25 | 49.14578 | 10.46595 | 36206 ft | 469 kts | 140° |
| 2026-04-24 22:26 | 49.09757 | 10.53354 | 36213 ft | 469 kts | 140° |
| 2026-04-24 22:26 | 49.04968 | 10.60043 | 36214 ft | 469 kts | 141° |
| 2026-04-24 22:27 | 49.00147 | 10.66752 | 36211 ft | 469 kts | 140° |
| 2026-04-24 22:27 | 48.95327 | 10.73457 | 36215 ft | 469 kts | 140° |
| 2026-04-24 22:28 | 48.90504 | 10.80150 | 36200 ft | 469 kts | 140° |
| 2026-04-24 22:28 | 48.85697 | 10.86797 | 36190 ft | 469 kts | 140° |
| 2026-04-24 22:29 | 48.78446 | 10.96816 | 36168 ft | 469 kts | 140° |
| 2026-04-24 22:29 | 48.73635 | 11.03423 | 36158 ft | 469 kts | 140° |
| 2026-04-24 22:30 | 48.68792 | 11.10051 | 36157 ft | 469 kts | 140° |
| 2026-04-24 22:30 | 48.63947 | 11.16672 | 36159 ft | 468 kts | 140° |
| 2026-04-24 22:31 | 48.59098 | 11.23281 | 36163 ft | 468 kts | 140° |
| 2026-04-24 22:31 | 48.54277 | 11.29840 | 36166 ft | 468 kts | 140° |
| 2026-04-24 22:32 | 48.49431 | 11.36420 | 36171 ft | 468 kts | 140° |
| 2026-04-24 22:32 | 48.44611 | 11.42926 | 36178 ft | 468 kts | 140° |
| 2026-04-24 22:33 | 48.39761 | 11.49469 | 36182 ft | 467 kts | 140° |
| 2026-04-24 22:33 | 48.34925 | 11.55990 | 36183 ft | 467 kts | 140° |
| 2026-04-24 22:34 | 48.30073 | 11.62490 | 36183 ft | 467 kts | 140° |
| 2026-04-24 22:34 | 48.25224 | 11.68973 | 36185 ft | 467 kts | 140° |
| 2026-04-24 22:35 | 48.20415 | 11.75543 | 36182 ft | 468 kts | 139° |
| 2026-04-24 22:35 | 48.15640 | 11.82166 | 36182 ft | 468 kts | 139° |
| 2026-04-24 22:36 | 48.10855 | 11.88772 | 36183 ft | 468 kts | 139° |
| 2026-04-24 22:36 | 48.06053 | 11.95336 | 36183 ft | 467 kts | 139° |
| 2026-04-24 22:37 | 48.01243 | 12.01875 | 36177 ft | 468 kts | 139° |
| 2026-04-24 22:37 | 47.96431 | 12.08409 | 36181 ft | 467 kts | 139° |
| 2026-04-24 22:38 | 47.91618 | 12.14929 | 36183 ft | 467 kts | 139° |
| 2026-04-24 22:38 | 47.87618 | 12.20333 | 36182 ft | 467 kts | 139° |
| 2026-04-24 22:39 | 47.81982 | 12.27924 | 36185 ft | 467 kts | 139° |
| 2026-04-24 22:39 | 47.77167 | 12.34399 | 36182 ft | 467 kts | 139° |
| 2026-04-24 22:40 | 47.72377 | 12.40833 | 36177 ft | 466 kts | 139° |
| 2026-04-24 22:40 | 47.67561 | 12.47284 | 36179 ft | 466 kts | 139° |
| 2026-04-24 22:41 | 47.62674 | 12.53589 | 36181 ft | 465 kts | 145° |
| 2026-04-24 22:41 | 47.58051 | 12.57726 | 36181 ft | 463 kts | 152° |
| 2026-04-24 22:42 | 47.51527 | 12.63193 | 36178 ft | 464 kts | 152° |
| 2026-04-24 22:42 | 47.45912 | 12.67901 | 36168 ft | 464 kts | 152° |
| 2026-04-24 22:43 | 47.40303 | 12.72587 | 36142 ft | 457 kts | 152° |
| 2026-04-24 22:43 | 47.37550 | 12.74881 | 35854 ft | 453 kts | 152° |
| 2026-04-24 22:43 | 47.34807 | 12.77162 | 35477 ft | 451 kts | 152° |
| 2026-04-24 22:44 | 47.32072 | 12.79436 | 35097 ft | 451 kts | 152° |
| 2026-04-24 22:44 | 47.29343 | 12.81707 | 34732 ft | 451 kts | 152° |
| 2026-04-24 22:44 | 47.26605 | 12.83983 | 34366 ft | 452 kts | 152° |
| 2026-04-24 22:44 | 47.23869 | 12.86253 | 33969 ft | 453 kts | 152° |
| 2026-04-24 22:45 | 47.21118 | 12.88532 | 33569 ft | 454 kts | 152° |
| 2026-04-24 22:45 | 47.18365 | 12.90808 | 33202 ft | 455 kts | 151° |
| 2026-04-24 22:45 | 47.12851 | 12.95363 | 33132 ft | 455 kts | 151° |
| 2026-04-24 22:46 | 47.07259 | 12.99967 | 33131 ft | 467 kts | 151° |
| 2026-04-24 22:46 | 47.01578 | 13.04624 | 33129 ft | 467 kts | 151° |
| 2026-04-24 22:47 | 46.95900 | 13.09271 | 33108 ft | 468 kts | 151° |
| 2026-04-24 22:47 | 46.90230 | 13.13928 | 33110 ft | 468 kts | 151° |
| 2026-04-24 22:48 | 46.84551 | 13.18572 | 33106 ft | 468 kts | 151° |
| 2026-04-24 22:48 | 46.78868 | 13.23195 | 33093 ft | 467 kts | 151° |
| 2026-04-24 22:49 | 46.73187 | 13.27798 | 33099 ft | 467 kts | 151° |
| 2026-04-24 22:49 | 46.67515 | 13.32400 | 33102 ft | 466 kts | 151° |
| 2026-04-24 22:50 | 46.61877 | 13.36953 | 33090 ft | 466 kts | 151° |
| 2026-04-24 22:50 | 46.56208 | 13.41518 | 33092 ft | 466 kts | 151° |
| 2026-04-24 22:51 | 46.50524 | 13.46082 | 32747 ft | 467 kts | 151° |
| 2026-04-24 22:51 | 46.47679 | 13.48359 | 32185 ft | 467 kts | 151° |
| 2026-04-24 22:51 | 46.44834 | 13.50629 | 31613 ft | 468 kts | 151° |
| 2026-04-24 22:52 | 46.41978 | 13.52908 | 31070 ft | 469 kts | 152° |
| 2026-04-24 22:52 | 46.40062 | 13.54365 | 30711 ft | 470 kts | 153° |
| 2026-04-24 22:52 | 46.37121 | 13.56427 | 30176 ft | 471 kts | 155° |
| 2026-04-24 22:52 | 46.34125 | 13.58366 | 29565 ft | 472 kts | 156° |
| 2026-04-24 22:53 | 46.31100 | 13.60238 | 28957 ft | 474 kts | 157° |
| 2026-04-24 22:53 | 46.28059 | 13.62099 | 28359 ft | 476 kts | 156° |
| 2026-04-24 22:53 | 46.25007 | 13.63989 | 27772 ft | 478 kts | 156° |
| 2026-04-24 22:53 | 46.21958 | 13.65921 | 27199 ft | 479 kts | 155° |
| 2026-04-24 22:54 | 46.18906 | 13.67886 | 26647 ft | 481 kts | 155° |
| 2026-04-24 22:54 | 46.15844 | 13.69877 | 26096 ft | 484 kts | 155° |
| 2026-04-24 22:54 | 46.12778 | 13.71879 | 25549 ft | 485 kts | 155° |
| 2026-04-24 22:54 | 46.09709 | 13.73879 | 25023 ft | 482 kts | 155° |
| 2026-04-24 22:55 | 46.06659 | 13.75854 | 24502 ft | 480 kts | 155° |
| 2026-04-24 22:55 | 46.03618 | 13.77813 | 23998 ft | 477 kts | 155° |
| 2026-04-24 22:55 | 46.00595 | 13.79749 | 23465 ft | 474 kts | 156° |
| 2026-04-24 22:55 | 45.97590 | 13.81663 | 22836 ft | 470 kts | 156° |
| 2026-04-24 22:56 | 45.94611 | 13.83560 | 22229 ft | 466 kts | 156° |
| 2026-04-24 22:56 | 45.91663 | 13.85439 | 21632 ft | 462 kts | 156° |
| 2026-04-24 22:56 | 45.88737 | 13.87307 | 21050 ft | 458 kts | 155° |
| 2026-04-24 22:56 | 45.85840 | 13.89158 | 20482 ft | 454 kts | 156° |
| 2026-04-24 22:57 | 45.82964 | 13.90989 | 19945 ft | 451 kts | 156° |
| 2026-04-24 22:57 | 45.80111 | 13.92806 | 19413 ft | 445 kts | 155° |
| 2026-04-24 22:57 | 45.77276 | 13.94449 | 18889 ft | 436 kts | 164° |
| 2026-04-24 22:57 | 45.74313 | 13.95121 | 18382 ft | 429 kts | 179° |
| 2026-04-24 22:58 | 45.71374 | 13.94710 | 17811 ft | 422 kts | 191° |
| 2026-04-24 22:58 | 45.68533 | 13.93950 | 17625 ft | 408 kts | 191° |
| 2026-04-24 22:58 | 45.65790 | 13.93201 | 17426 ft | 395 kts | 191° |
| 2026-04-24 22:58 | 45.63102 | 13.92462 | 16923 ft | 391 kts | 191° |
| 2026-04-24 22:59 | 45.60446 | 13.91728 | 16416 ft | 387 kts | 191° |
| 2026-04-24 22:59 | 45.57818 | 13.91003 | 15917 ft | 383 kts | 191° |
| 2026-04-24 22:59 | 45.52686 | 13.89599 | 14938 ft | 368 kts | 191° |
| 2026-04-24 23:00 | 45.50229 | 13.88932 | 14463 ft | 361 kts | 191° |
| 2026-04-24 23:00 | 45.47780 | 13.88315 | 13989 ft | 355 kts | 189° |
| 2026-04-24 23:00 | 45.45360 | 13.87770 | 13481 ft | 349 kts | 189° |
| 2026-04-24 23:00 | 45.42972 | 13.87266 | 12960 ft | 344 kts | 188° |
| 2026-04-24 23:01 | 45.40618 | 13.86780 | 12453 ft | 340 kts | 188° |
| 2026-04-24 23:01 | 45.38286 | 13.86294 | 11947 ft | 336 kts | 188° |
| 2026-04-24 23:01 | 45.35989 | 13.85806 | 11457 ft | 331 kts | 189° |
| 2026-04-24 23:01 | 45.33744 | 13.85317 | 10962 ft | 323 kts | 189° |
| 2026-04-24 23:02 | 45.31517 | 13.84831 | 10477 ft | 324 kts | 188° |
| 2026-04-24 23:02 | 45.29313 | 13.84351 | 9996 ft | 315 kts | 188° |
| 2026-04-24 23:02 | 45.27179 | 13.83885 | 9476 ft | 306 kts | 188° |
| 2026-04-24 23:02 | 45.25098 | 13.83478 | 8959 ft | 297 kts | 182° |
| 2026-04-24 23:03 | 45.23056 | 13.83533 | 8439 ft | 291 kts | 177° |
| 2026-04-24 23:03 | 45.21036 | 13.83650 | 7954 ft | 291 kts | 177° |
| 2026-04-24 23:03 | 45.18995 | 13.83763 | 7463 ft | 296 kts | 177° |
| 2026-04-24 23:03 | 45.16942 | 13.83875 | 7155 ft | 293 kts | 177° |
| 2026-04-24 23:04 | 45.14915 | 13.83986 | 6872 ft | 290 kts | 177° |
| 2026-04-24 23:04 | 45.12920 | 13.84097 | 6630 ft | 285 kts | 177° |
| 2026-04-24 23:04 | 45.10953 | 13.84208 | 6389 ft | 280 kts | 176° |
| 2026-04-24 23:04 | 45.09048 | 13.84315 | 6136 ft | 276 kts | 177° |
| 2026-04-24 23:05 | 45.07124 | 13.84412 | 5887 ft | 271 kts | 180° |
| 2026-04-24 23:05 | 45.05312 | 13.83932 | 5628 ft | 268 kts | 202° |
| 2026-04-24 23:05 | 45.03786 | 13.82481 | 5378 ft | 264 kts | 227° |
| 2026-04-24 23:05 | 45.02808 | 13.80285 | 5131 ft | 261 kts | 251° |
| 2026-04-24 23:06 | 45.02512 | 13.77811 | 5008 ft | 260 kts | 267° |
| 2026-04-24 23:06 | 45.02474 | 13.76951 | 4998 ft | 259 kts | 266° |
| 2026-04-24 23:07 | 45.01450 | 13.67698 | 4136 ft | 242 kts | 257° |
| 2026-04-24 23:07 | 45.01054 | 13.65391 | 3831 ft | 241 kts | 257° |
| 2026-04-24 23:07 | 45.00659 | 13.63099 | 3542 ft | 239 kts | 257° |
| 2026-04-24 23:07 | 45.00342 | 13.60819 | 3266 ft | 234 kts | 266° |
| 2026-04-24 23:08 | 45.00272 | 13.58558 | 2994 ft | 226 kts | 269° |
| 2026-04-24 23:08 | 45.00111 | 13.56400 | 2756 ft | 217 kts | 253° |
| 2026-04-24 23:08 | 44.99397 | 13.54589 | 2527 ft | 209 kts | 226° |
| 2026-04-24 23:08 | 44.98208 | 13.53491 | 2360 ft | 203 kts | 198° |
| 2026-04-24 23:09 | 44.96853 | 13.53162 | 2290 ft | 196 kts | 172° |
| 2026-04-24 23:09 | 44.95988 | 13.53537 | 2341 ft | 192 kts | 151° |
| 2026-04-24 23:09 | 44.94980 | 13.54750 | 2323 ft | 191 kts | 125° |
| 2026-04-24 23:09 | 44.94390 | 13.56387 | 2302 ft | 190 kts | 112° |
| 2026-04-24 23:10 | 44.93862 | 13.58096 | 2309 ft | 190 kts | 113° |
| 2026-04-24 23:10 | 44.93324 | 13.59801 | 2311 ft | 190 kts | 113° |
| 2026-04-24 23:10 | 44.92783 | 13.61506 | 2308 ft | 190 kts | 113° |
| 2026-04-24 23:10 | 44.92245 | 13.63205 | 2309 ft | 190 kts | 113° |
| 2026-04-24 23:11 | 44.91703 | 13.64907 | 2310 ft | 190 kts | 113° |
| 2026-04-24 23:11 | 44.91161 | 13.66608 | 2312 ft | 190 kts | 113° |
| 2026-04-24 23:11 | 44.90617 | 13.68312 | 2306 ft | 190 kts | 113° |
| 2026-04-24 23:11 | 44.90074 | 13.70011 | 2307 ft | 190 kts | 113° |
| 2026-04-24 23:12 | 44.89533 | 13.71707 | 2306 ft | 188 kts | 113° |
| 2026-04-24 23:12 | 44.89050 | 13.73337 | 2295 ft | 175 kts | 104° |
| 2026-04-24 23:12 | 44.88960 | 13.75020 | 2154 ft | 171 kts | 86° |
| 2026-04-24 23:12 | 44.89002 | 13.76677 | 1933 ft | 168 kts | 87° |
| 2026-04-24 23:13 | 44.89040 | 13.78313 | 1728 ft | 166 kts | 87° |
| 2026-04-24 23:13 | 44.89074 | 13.79898 | 1520 ft | 155 kts | 88° |
| 2026-04-24 23:13 | 44.89104 | 13.81359 | 1344 ft | 146 kts | 88° |
| 2026-04-24 23:13 | 44.89128 | 13.82766 | 1159 ft | 141 kts | 89° |
| 2026-04-24 23:14 | 44.89134 | 13.84125 | 974 ft | 140 kts | 88° |
| 2026-04-24 23:14 | 44.89187 | 13.85505 | 836 ft | 141 kts | 84° |
| 2026-04-24 23:14 | 44.89237 | 13.86865 | 658 ft | 137 kts | 88° |
| 2026-04-24 23:14 | 44.89265 | 13.88217 | 495 ft | 138 kts | 87° |
| 2026-04-24 23:15 | 44.89298 | 13.89560 | 337 ft | 137 kts | 87° |
| 2026-04-24 23:15 | 44.89328 | 13.90888 | 225 ft | 129 kts | 87° |
| 2026-04-24 23:15 | 44.89351 | 13.91926 | 225 ft | 82 kts | 88° |
| 2026-04-24 23:15 | 44.89362 | 13.92526 | 220 ft | 47 kts | 88° |
| 2026-04-24 23:16 | 44.89370 | 13.92817 | 222 ft | 17 kts | 78° |
| 2026-04-24 23:16 | 44.89476 | 13.92866 | 222 ft | 19 kts | 359° |
| 2026-04-24 23:16 | 44.89574 | 13.92838 | 225 ft | 10 kts | 307° |
| 2026-04-24 23:16 | 44.89585 | 13.92729 | 224 ft | 13 kts | 268° |
| 2026-04-24 23:17 | 44.89582 | 13.92612 | 223 ft | 11 kts | 268° |
| 2026-04-24 23:17 | 44.89581 | 13.92555 | 226 ft | 0 kts | 269° |
| 2026-04-24 23:17 | 44.89581 | 13.92547 | 226 ft | 4 kts | 269° |
| 2026-04-24 23:17 | 44.89596 | 13.92469 | 227 ft | 10 kts | 324° |
| 2026-04-24 23:18 | 44.89658 | 13.92457 | 226 ft | 9 kts | 358° |
| 2026-04-24 23:18 | 44.89705 | 13.92455 | 226 ft | 7 kts | 352° |
| 2026-04-24 23:18 | 44.89719 | 13.92423 | 226 ft | 2 kts | 274° |
| 2026-04-24 23:18 | 44.89726 | 13.92391 | 226 ft | 0 kts | 314° |
| 2026-04-24 23:19 | 44.89737 | 13.92390 | 226 ft | 2 kts | 6° |
| 2026-04-24 23:19 | 44.89749 | 13.92400 | 226 ft | 2 kts | 36° |
| 2026-04-24 23:19 | 44.89754 | 13.92405 | 226 ft | 0 kts | 38° |
| 2026-04-24 23:20 | 44.89754 | 13.92406 | 226 ft | 0 kts | 41° |